sensor_id;sensor_type;location;lat;lon;timestamp;temperature;humidity
11009;DHT22;5557;51.670;7.788;2023-02-07T00:00:23;-0.40;82.10
11009;DHT22;5557;51.670;7.788;2023-02-07T00:02:50;-0.40;81.10
11009;DHT22;5557;51.670;7.788;2023-02-07T00:05:17;-0.40;81.10
11009;DHT22;5557;51.670;7.788;2023-02-07T00:07:44;-0.50;80.40
11009;DHT22;5557;51.670;7.788;2023-02-07T00:10:11;-0.50;81.00
11009;DHT22;5557;51.670;7.788;2023-02-07T00:12:38;-0.50;81.10
11009;DHT22;5557;51.670;7.788;2023-02-07T00:15:06;-0.50;81.80
11009;DHT22;5557;51.670;7.788;2023-02-07T00:17:33;-0.50;81.10
11009;DHT22;5557;51.670;7.788;2023-02-07T00:20:00;-0.50;81.00
11009;DHT22;5557;51.670;7.788;2023-02-07T00:22:27;-0.50;80.00
11009;DHT22;5557;51.670;7.788;2023-02-07T00:24:54;-0.50;79.70
11009;DHT22;5557;51.670;7.788;2023-02-07T00:27:21;-0.50;80.10
11009;DHT22;5557;51.670;7.788;2023-02-07T00:29:48;-0.60;79.30
11009;DHT22;5557;51.670;7.788;2023-02-07T00:32:15;-0.60;80.40
11009;DHT22;5557;51.670;7.788;2023-02-07T00:34:46;-0.70;82.40
11009;DHT22;5557;51.670;7.788;2023-02-07T00:37:13;-0.60;83.50
11009;DHT22;5557;51.670;7.788;2023-02-07T00:39:41;-0.70;81.80
11009;DHT22;5557;51.670;7.788;2023-02-07T00:42:08;-0.60;83.00
11009;DHT22;5557;51.670;7.788;2023-02-07T00:44:35;-0.60;82.40
11009;DHT22;5557;51.670;7.788;2023-02-07T00:47:01;-0.70;82.60
11009;DHT22;5557;51.670;7.788;2023-02-07T00:49:28;-0.70;85.30
11009;DHT22;5557;51.670;7.788;2023-02-07T00:51:55;-0.70;85.60
11009;DHT22;5557;51.670;7.788;2023-02-07T00:54:22;-0.70;84.50
11009;DHT22;5557;51.670;7.788;2023-02-07T00:56:49;-0.70;83.30
11009;DHT22;5557;51.670;7.788;2023-02-07T00:59:16;-0.80;83.90
11009;DHT22;5557;51.670;7.788;2023-02-07T01:01:43;-0.80;84.80
11009;DHT22;5557;51.670;7.788;2023-02-07T01:04:10;-0.90;87.00
11009;DHT22;5557;51.670;7.788;2023-02-07T01:06:37;-1.00;89.70
11009;DHT22;5557;51.670;7.788;2023-02-07T01:09:05;-1.10;90.80
11009;DHT22;5557;51.670;7.788;2023-02-07T01:11:32;-1.20;91.70
11009;DHT22;5557;51.670;7.788;2023-02-07T01:14:00;-1.30;92.60
11009;DHT22;5557;51.670;7.788;2023-02-07T01:16:30;-1.30;94.20
11009;DHT22;5557;51.670;7.788;2023-02-07T01:19:01;-1.30;96.30
11009;DHT22;5557;51.670;7.788;2023-02-07T01:21:28;-1.20;97.30
11009;DHT22;5557;51.670;7.788;2023-02-07T01:23:55;-1.30;97.30
11009;DHT22;5557;51.670;7.788;2023-02-07T01:26:23;-1.40;97.60
11009;DHT22;5557;51.670;7.788;2023-02-07T01:28:52;-1.50;98.30
11009;DHT22;5557;51.670;7.788;2023-02-07T01:31:21;-1.50;99.50
11009;DHT22;5557;51.670;7.788;2023-02-07T01:33:56;-1.50;99.90
11009;DHT22;5557;51.670;7.788;2023-02-07T01:36:24;-1.60;99.90
11009;DHT22;5557;51.670;7.788;2023-02-07T01:38:52;-1.60;99.90
11009;DHT22;5557;51.670;7.788;2023-02-07T01:41:21;-1.70;99.90
11009;DHT22;5557;51.670;7.788;2023-02-07T01:43:52;-1.70;99.90
11009;DHT22;5557;51.670;7.788;2023-02-07T01:46:19;-1.60;99.90
11009;DHT22;5557;51.670;7.788;2023-02-07T01:48:47;-1.60;99.90
11009;DHT22;5557;51.670;7.788;2023-02-07T01:51:15;-1.70;99.90
11009;DHT22;5557;51.670;7.788;2023-02-07T01:53:42;-1.70;99.90
11009;DHT22;5557;51.670;7.788;2023-02-07T01:56:10;-1.80;99.90
11009;DHT22;5557;51.670;7.788;2023-02-07T01:58:51;-1.80;99.90
11009;DHT22;5557;51.670;7.788;2023-02-07T02:01:23;-1.80;99.90
11009;DHT22;5557;51.670;7.788;2023-02-07T02:03:53;-1.80;99.90
11009;DHT22;5557;51.670;7.788;2023-02-07T02:06:22;-1.70;99.90
11009;DHT22;5557;51.670;7.788;2023-02-07T02:08:56;-1.80;99.90
11009;DHT22;5557;51.670;7.788;2023-02-07T02:15:24;-1.80;99.90
11009;DHT22;5557;51.670;7.788;2023-02-07T02:18:35;-1.70;99.90
11009;DHT22;5557;51.670;7.788;2023-02-07T02:32:05;-1.60;99.90
11009;DHT22;5557;51.670;7.788;2023-02-07T02:36:20;-1.70;99.90
11009;DHT22;5557;51.670;7.788;2023-02-07T02:37:49;-1.80;99.90
11009;DHT22;5557;51.670;7.788;2023-02-07T02:40:51;-1.80;99.90
11009;DHT22;5557;51.670;7.788;2023-02-07T02:43:45;-1.80;99.90
11009;DHT22;5557;51.670;7.788;2023-02-07T02:46:27;-1.90;99.90
11009;DHT22;5557;51.670;7.788;2023-02-07T02:48:57;-2.00;99.90
11009;DHT22;5557;51.670;7.788;2023-02-07T02:51:30;-2.00;99.90
11009;DHT22;5557;51.670;7.788;2023-02-07T02:53:58;-2.00;99.90
11009;DHT22;5557;51.670;7.788;2023-02-07T02:56:48;-2.10;99.90
11009;DHT22;5557;51.670;7.788;2023-02-07T03:05:51;-1.90;99.90
11009;DHT22;5557;51.670;7.788;2023-02-07T03:11:39;-2.00;99.90
11009;DHT22;5557;51.670;7.788;2023-02-07T03:14:15;-2.20;99.90
11009;DHT22;5557;51.670;7.788;2023-02-07T03:16:56;-2.40;99.90
11009;DHT22;5557;51.670;7.788;2023-02-07T03:22:03;-2.60;99.90
11009;DHT22;5557;51.670;7.788;2023-02-07T03:24:40;-2.70;99.90
11009;DHT22;5557;51.670;7.788;2023-02-07T03:27:11;-2.70;99.90
11009;DHT22;5557;51.670;7.788;2023-02-07T03:29:41;-2.80;99.90
11009;DHT22;5557;51.670;7.788;2023-02-07T03:32:12;-2.90;99.90
11009;DHT22;5557;51.670;7.788;2023-02-07T03:34:41;-2.90;99.90
11009;DHT22;5557;51.670;7.788;2023-02-07T03:37:14;-3.00;99.90
11009;DHT22;5557;51.670;7.788;2023-02-07T03:39:42;-3.00;99.90
11009;DHT22;5557;51.670;7.788;2023-02-07T03:42:18;-3.10;99.90
11009;DHT22;5557;51.670;7.788;2023-02-07T03:44:48;-3.10;99.90
11009;DHT22;5557;51.670;7.788;2023-02-07T03:47:17;-2.90;99.90
11009;DHT22;5557;51.670;7.788;2023-02-07T03:49:45;-2.90;99.90
11009;DHT22;5557;51.670;7.788;2023-02-07T03:52:11;-2.90;99.90
11009;DHT22;5557;51.670;7.788;2023-02-07T03:54:38;-2.90;99.90
11009;DHT22;5557;51.670;7.788;2023-02-07T03:57:05;-3.00;99.90
11009;DHT22;5557;51.670;7.788;2023-02-07T03:59:32;-3.00;99.90
11009;DHT22;5557;51.670;7.788;2023-02-07T04:01:59;-3.20;99.90
11009;DHT22;5557;51.670;7.788;2023-02-07T04:04:28;-3.20;99.90
11009;DHT22;5557;51.670;7.788;2023-02-07T04:06:55;-3.20;99.90
11009;DHT22;5557;51.670;7.788;2023-02-07T04:09:22;-3.20;99.90
11009;DHT22;5557;51.670;7.788;2023-02-07T04:11:50;-3.10;99.90
11009;DHT22;5557;51.670;7.788;2023-02-07T04:14:18;-3.20;99.90
11009;DHT22;5557;51.670;7.788;2023-02-07T04:16:48;-3.30;99.90
11009;DHT22;5557;51.670;7.788;2023-02-07T04:19:15;-3.40;99.90
11009;DHT22;5557;51.670;7.788;2023-02-07T04:21:42;-3.40;99.90
11009;DHT22;5557;51.670;7.788;2023-02-07T04:24:10;-3.50;99.90
11009;DHT22;5557;51.670;7.788;2023-02-07T04:26:37;-3.50;99.90
11009;DHT22;5557;51.670;7.788;2023-02-07T04:29:04;-3.60;99.90
11009;DHT22;5557;51.670;7.788;2023-02-07T04:31:34;-3.70;99.90
11009;DHT22;5557;51.670;7.788;2023-02-07T04:34:01;-3.80;99.90
11009;DHT22;5557;51.670;7.788;2023-02-07T04:36:28;-3.90;99.90
11009;DHT22;5557;51.670;7.788;2023-02-07T04:38:57;-4.00;99.90
11009;DHT22;5557;51.670;7.788;2023-02-07T04:41:24;-4.10;99.90
11009;DHT22;5557;51.670;7.788;2023-02-07T04:43:51;-4.10;99.90
11009;DHT22;5557;51.670;7.788;2023-02-07T04:46:19;-4.00;99.90
11009;DHT22;5557;51.670;7.788;2023-02-07T04:48:46;-4.00;99.90
11009;DHT22;5557;51.670;7.788;2023-02-07T04:51:16;-4.00;99.90
11009;DHT22;5557;51.670;7.788;2023-02-07T04:53:43;-3.70;99.90
11009;DHT22;5557;51.670;7.788;2023-02-07T04:56:10;-3.30;99.90
11009;DHT22;5557;51.670;7.788;2023-02-07T04:58:37;-3.20;99.90
11009;DHT22;5557;51.670;7.788;2023-02-07T05:01:04;-3.20;99.90
11009;DHT22;5557;51.670;7.788;2023-02-07T05:03:31;-3.20;99.90
11009;DHT22;5557;51.670;7.788;2023-02-07T05:05:58;-3.20;99.90
11009;DHT22;5557;51.670;7.788;2023-02-07T05:08:25;-3.30;99.90
11009;DHT22;5557;51.670;7.788;2023-02-07T05:10:53;-3.30;99.90
11009;DHT22;5557;51.670;7.788;2023-02-07T05:13:21;-3.20;99.90
11009;DHT22;5557;51.670;7.788;2023-02-07T05:15:49;-3.20;99.90
11009;DHT22;5557;51.670;7.788;2023-02-07T05:18:16;-3.20;99.90
11009;DHT22;5557;51.670;7.788;2023-02-07T05:20:44;-3.20;99.90
11009;DHT22;5557;51.670;7.788;2023-02-07T05:23:10;-3.20;99.90
11009;DHT22;5557;51.670;7.788;2023-02-07T05:25:40;-3.20;99.90
11009;DHT22;5557;51.670;7.788;2023-02-07T05:28:08;-3.30;99.90
11009;DHT22;5557;51.670;7.788;2023-02-07T05:30:36;-3.30;99.90
11009;DHT22;5557;51.670;7.788;2023-02-07T05:33:06;-3.30;99.90
11009;DHT22;5557;51.670;7.788;2023-02-07T05:35:36;-3.30;99.90
11009;DHT22;5557;51.670;7.788;2023-02-07T05:38:06;-3.30;99.90
11009;DHT22;5557;51.670;7.788;2023-02-07T05:40:34;-3.30;99.90
11009;DHT22;5557;51.670;7.788;2023-02-07T05:43:01;-3.30;99.90
11009;DHT22;5557;51.670;7.788;2023-02-07T05:45:29;-3.30;99.90
11009;DHT22;5557;51.670;7.788;2023-02-07T05:47:56;-3.30;99.90
11009;DHT22;5557;51.670;7.788;2023-02-07T05:50:23;-3.30;99.90
11009;DHT22;5557;51.670;7.788;2023-02-07T05:52:50;-3.40;99.90
11009;DHT22;5557;51.670;7.788;2023-02-07T05:55:18;-3.40;99.90
11009;DHT22;5557;51.670;7.788;2023-02-07T05:57:45;-3.50;99.90
11009;DHT22;5557;51.670;7.788;2023-02-07T06:00:15;-3.50;99.90
11009;DHT22;5557;51.670;7.788;2023-02-07T06:02:42;-3.40;99.90
11009;DHT22;5557;51.670;7.788;2023-02-07T06:05:15;-3.40;99.90
11009;DHT22;5557;51.670;7.788;2023-02-07T06:07:42;-3.30;99.90
11009;DHT22;5557;51.670;7.788;2023-02-07T06:10:13;-3.20;99.90
11009;DHT22;5557;51.670;7.788;2023-02-07T06:12:40;-3.20;99.90
11009;DHT22;5557;51.670;7.788;2023-02-07T06:15:08;-3.20;99.90
11009;DHT22;5557;51.670;7.788;2023-02-07T06:17:35;-3.20;99.90
11009;DHT22;5557;51.670;7.788;2023-02-07T06:20:02;-3.10;99.90
11009;DHT22;5557;51.670;7.788;2023-02-07T06:22:29;-3.00;99.90
11009;DHT22;5557;51.670;7.788;2023-02-07T06:24:56;-3.10;99.90
11009;DHT22;5557;51.670;7.788;2023-02-07T06:27:23;-3.00;99.90
11009;DHT22;5557;51.670;7.788;2023-02-07T06:29:50;-3.00;99.90
11009;DHT22;5557;51.670;7.788;2023-02-07T06:32:17;-3.00;99.90
11009;DHT22;5557;51.670;7.788;2023-02-07T06:34:44;-2.90;99.90
11009;DHT22;5557;51.670;7.788;2023-02-07T06:37:11;-2.90;99.90
11009;DHT22;5557;51.670;7.788;2023-02-07T06:39:38;-2.90;99.90
11009;DHT22;5557;51.670;7.788;2023-02-07T06:42:05;-2.80;99.90
11009;DHT22;5557;51.670;7.788;2023-02-07T06:44:32;-2.80;99.90
11009;DHT22;5557;51.670;7.788;2023-02-07T06:46:59;-2.80;99.90
11009;DHT22;5557;51.670;7.788;2023-02-07T06:49:26;-2.80;99.90
11009;DHT22;5557;51.670;7.788;2023-02-07T06:51:53;-2.80;99.90
11009;DHT22;5557;51.670;7.788;2023-02-07T06:54:20;-2.80;99.90
11009;DHT22;5557;51.670;7.788;2023-02-07T06:56:47;-2.70;99.90
11009;DHT22;5557;51.670;7.788;2023-02-07T06:59:14;-2.70;99.90
11009;DHT22;5557;51.670;7.788;2023-02-07T07:01:41;-2.70;99.90
11009;DHT22;5557;51.670;7.788;2023-02-07T07:04:08;-2.70;99.90
11009;DHT22;5557;51.670;7.788;2023-02-07T07:06:35;-2.70;99.90
11009;DHT22;5557;51.670;7.788;2023-02-07T07:09:03;-2.70;99.90
11009;DHT22;5557;51.670;7.788;2023-02-07T07:11:30;-2.70;99.90
11009;DHT22;5557;51.670;7.788;2023-02-07T07:13:57;-2.60;99.90
11009;DHT22;5557;51.670;7.788;2023-02-07T07:16:26;-2.20;99.90
11009;DHT22;5557;51.670;7.788;2023-02-07T07:18:53;-1.90;99.90
11009;DHT22;5557;51.670;7.788;2023-02-07T07:21:20;-1.60;99.90
11009;DHT22;5557;51.670;7.788;2023-02-07T07:23:47;-1.40;99.90
11009;DHT22;5557;51.670;7.788;2023-02-07T07:26:13;-1.10;99.90
11009;DHT22;5557;51.670;7.788;2023-02-07T07:28:40;-0.80;99.90
11009;DHT22;5557;51.670;7.788;2023-02-07T07:31:07;-0.50;99.90
11009;DHT22;5557;51.670;7.788;2023-02-07T07:33:35;-0.10;99.90
11009;DHT22;5557;51.670;7.788;2023-02-07T07:36:03;0.20;99.90
11009;DHT22;5557;51.670;7.788;2023-02-07T07:38:31;0.60;99.90
11009;DHT22;5557;51.670;7.788;2023-02-07T07:40:59;1.00;91.10
11009;DHT22;5557;51.670;7.788;2023-02-07T07:43:26;1.30;67.80
11009;DHT22;5557;51.670;7.788;2023-02-07T07:45:57;1.80;43.00
11009;DHT22;5557;51.670;7.788;2023-02-07T07:48:26;1.90;32.00
11009;DHT22;5557;51.670;7.788;2023-02-07T07:50:54;2.00;23.00
11009;DHT22;5557;51.670;7.788;2023-02-07T07:53:21;2.10;20.00
11009;DHT22;5557;51.670;7.788;2023-02-07T07:55:53;2.40;16.30
11009;DHT22;5557;51.670;7.788;2023-02-07T07:58:21;2.90;13.00
11009;DHT22;5557;51.670;7.788;2023-02-07T08:00:49;3.10;6.80
11009;DHT22;5557;51.670;7.788;2023-02-07T08:03:17;3.50;8.20
11009;DHT22;5557;51.670;7.788;2023-02-07T08:05:45;3.70;2.80
11009;DHT22;5557;51.670;7.788;2023-02-07T08:08:13;3.80;1.00
11009;DHT22;5557;51.670;7.788;2023-02-07T08:10:41;3.80;1.00
11009;DHT22;5557;51.670;7.788;2023-02-07T08:13:08;3.80;1.00
11009;DHT22;5557;51.670;7.788;2023-02-07T08:15:35;3.50;1.00
11009;DHT22;5557;51.670;7.788;2023-02-07T08:18:02;3.50;3.00
11009;DHT22;5557;51.670;7.788;2023-02-07T08:20:29;3.70;1.00
11009;DHT22;5557;51.670;7.788;2023-02-07T08:22:57;3.60;1.00
11009;DHT22;5557;51.670;7.788;2023-02-07T08:25:25;3.60;1.00
11009;DHT22;5557;51.670;7.788;2023-02-07T08:27:53;3.40;1.00
11009;DHT22;5557;51.670;7.788;2023-02-07T08:30:20;3.20;1.00
11009;DHT22;5557;51.670;7.788;2023-02-07T08:32:48;3.00;1.30
11009;DHT22;5557;51.670;7.788;2023-02-07T08:35:26;2.90;2.60
11009;DHT22;5557;51.670;7.788;2023-02-07T08:37:54;2.60;8.10
11009;DHT22;5557;51.670;7.788;2023-02-07T08:40:25;2.80;2.90
11009;DHT22;5557;51.670;7.788;2023-02-07T08:42:52;2.80;4.00
11009;DHT22;5557;51.670;7.788;2023-02-07T08:45:21;3.10;2.50
11009;DHT22;5557;51.670;7.788;2023-02-07T08:47:48;3.10;2.10
11009;DHT22;5557;51.670;7.788;2023-02-07T08:50:16;3.20;2.20
11009;DHT22;5557;51.670;7.788;2023-02-07T08:52:43;3.00;5.30
11009;DHT22;5557;51.670;7.788;2023-02-07T08:55:10;3.40;2.50
11009;DHT22;5557;51.670;7.788;2023-02-07T08:57:37;3.30;1.50
11009;DHT22;5557;51.670;7.788;2023-02-07T09:00:06;3.60;1.40
11009;DHT22;5557;51.670;7.788;2023-02-07T09:02:33;3.40;1.00
11009;DHT22;5557;51.670;7.788;2023-02-07T09:05:01;3.40;2.00
11009;DHT22;5557;51.670;7.788;2023-02-07T09:07:28;3.80;1.00
11009;DHT22;5557;51.670;7.788;2023-02-07T09:09:55;4.00;1.00
11009;DHT22;5557;51.670;7.788;2023-02-07T09:12:22;4.30;1.00
11009;DHT22;5557;51.670;7.788;2023-02-07T09:14:49;4.40;1.00
11009;DHT22;5557;51.670;7.788;2023-02-07T09:17:16;4.40;1.00
11009;DHT22;5557;51.670;7.788;2023-02-07T09:19:42;4.40;1.00
11009;DHT22;5557;51.670;7.788;2023-02-07T09:22:09;5.10;1.00
11009;DHT22;5557;51.670;7.788;2023-02-07T09:24:36;5.30;1.00
11009;DHT22;5557;51.670;7.788;2023-02-07T09:27:03;5.40;1.00
11009;DHT22;5557;51.670;7.788;2023-02-07T09:29:30;5.70;1.00
11009;DHT22;5557;51.670;7.788;2023-02-07T09:31:57;5.60;1.00
11009;DHT22;5557;51.670;7.788;2023-02-07T09:34:25;5.30;1.00
11009;DHT22;5557;51.670;7.788;2023-02-07T09:36:53;5.30;1.00
11009;DHT22;5557;51.670;7.788;2023-02-07T09:39:20;5.40;1.00
11009;DHT22;5557;51.670;7.788;2023-02-07T09:45:07;6.40;1.00
11009;DHT22;5557;51.670;7.788;2023-02-07T09:47:37;6.90;1.00
11009;DHT22;5557;51.670;7.788;2023-02-07T09:50:18;7.10;1.00
11009;DHT22;5557;51.670;7.788;2023-02-07T09:52:57;6.90;1.00
11009;DHT22;5557;51.670;7.788;2023-02-07T09:55:30;6.90;1.00
11009;DHT22;5557;51.670;7.788;2023-02-07T09:58:13;6.80;1.00
11009;DHT22;5557;51.670;7.788;2023-02-07T10:00:41;7.00;1.00
11009;DHT22;5557;51.670;7.788;2023-02-07T10:03:18;7.10;1.00
11009;DHT22;5557;51.670;7.788;2023-02-07T10:06:00;6.60;1.00
11009;DHT22;5557;51.670;7.788;2023-02-07T10:08:45;6.30;1.00
11009;DHT22;5557;51.670;7.788;2023-02-07T10:11:22;6.20;1.00
11009;DHT22;5557;51.670;7.788;2023-02-07T10:14:18;6.10;1.00
11009;DHT22;5557;51.670;7.788;2023-02-07T10:20:28;5.20;1.00
11009;DHT22;5557;51.670;7.788;2023-02-07T10:23:30;5.10;1.00
11009;DHT22;5557;51.670;7.788;2023-02-07T10:32:36;5.00;1.00
11009;DHT22;5557;51.670;7.788;2023-02-07T10:35:23;4.70;1.00
11009;DHT22;5557;51.670;7.788;2023-02-07T10:37:54;4.80;1.00
11009;DHT22;5557;51.670;7.788;2023-02-07T10:40:41;4.60;1.00
11009;DHT22;5557;51.670;7.788;2023-02-07T10:43:17;4.30;1.00
11009;DHT22;5557;51.670;7.788;2023-02-07T10:45:47;4.10;1.00
11009;DHT22;5557;51.670;7.788;2023-02-07T10:48:26;4.00;1.00
11009;DHT22;5557;51.670;7.788;2023-02-07T10:50:55;4.10;1.00
11009;DHT22;5557;51.670;7.788;2023-02-07T10:54:02;4.10;1.00
11009;DHT22;5557;51.670;7.788;2023-02-07T10:56:30;3.90;1.00
11009;DHT22;5557;51.670;7.788;2023-02-07T10:58:59;3.70;1.00
11009;DHT22;5557;51.670;7.788;2023-02-07T11:01:29;3.70;1.00
11009;DHT22;5557;51.670;7.788;2023-02-07T11:03:57;3.50;1.00
11009;DHT22;5557;51.670;7.788;2023-02-07T11:06:33;3.40;1.00
11009;DHT22;5557;51.670;7.788;2023-02-07T11:09:11;3.40;1.00
11009;DHT22;5557;51.670;7.788;2023-02-07T11:11:38;3.30;1.00
11009;DHT22;5557;51.670;7.788;2023-02-07T11:14:09;3.30;1.00
11009;DHT22;5557;51.670;7.788;2023-02-07T11:16:43;3.50;1.00
11009;DHT22;5557;51.670;7.788;2023-02-07T11:19:16;3.40;1.00
11009;DHT22;5557;51.670;7.788;2023-02-07T11:21:45;3.40;1.00
11009;DHT22;5557;51.670;7.788;2023-02-07T11:24:28;3.40;1.00
11009;DHT22;5557;51.670;7.788;2023-02-07T11:27:16;3.40;1.00
11009;DHT22;5557;51.670;7.788;2023-02-07T11:29:59;3.50;2.40
11009;DHT22;5557;51.670;7.788;2023-02-07T11:32:32;3.50;1.00
11009;DHT22;5557;51.670;7.788;2023-02-07T11:35:06;3.30;1.00
11009;DHT22;5557;51.670;7.788;2023-02-07T11:37:36;3.20;1.00
11009;DHT22;5557;51.670;7.788;2023-02-07T11:45:36;3.30;2.80
11009;DHT22;5557;51.670;7.788;2023-02-07T11:48:04;3.30;1.00
11009;DHT22;5557;51.670;7.788;2023-02-07T11:50:38;3.30;1.00
11009;DHT22;5557;51.670;7.788;2023-02-07T11:53:07;3.30;1.00
11009;DHT22;5557;51.670;7.788;2023-02-07T11:55:42;3.40;1.00
11009;DHT22;5557;51.670;7.788;2023-02-07T11:58:18;3.40;1.00
11009;DHT22;5557;51.670;7.788;2023-02-07T12:00:46;3.50;1.00
11009;DHT22;5557;51.670;7.788;2023-02-07T12:03:29;3.50;1.00
11009;DHT22;5557;51.670;7.788;2023-02-07T12:06:00;3.50;1.00
11009;DHT22;5557;51.670;7.788;2023-02-07T12:08:31;3.40;1.00
11009;DHT22;5557;51.670;7.788;2023-02-07T12:11:07;3.40;1.00
11009;DHT22;5557;51.670;7.788;2023-02-07T12:13:44;3.50;1.00
11009;DHT22;5557;51.670;7.788;2023-02-07T12:16:18;3.50;1.00
11009;DHT22;5557;51.670;7.788;2023-02-07T12:19:16;3.50;1.00
11009;DHT22;5557;51.670;7.788;2023-02-07T12:22:17;3.50;1.00
11009;DHT22;5557;51.670;7.788;2023-02-07T12:24:57;3.40;1.00
11009;DHT22;5557;51.670;7.788;2023-02-07T12:27:34;3.40;1.00
11009;DHT22;5557;51.670;7.788;2023-02-07T12:30:41;3.40;1.00
11009;DHT22;5557;51.670;7.788;2023-02-07T12:33:27;3.50;1.00
11009;DHT22;5557;51.670;7.788;2023-02-07T12:36:14;3.60;1.00
11009;DHT22;5557;51.670;7.788;2023-02-07T12:39:42;3.60;1.00
11009;DHT22;5557;51.670;7.788;2023-02-07T12:42:28;3.70;1.00
11009;DHT22;5557;51.670;7.788;2023-02-07T12:44:59;3.70;1.00
11009;DHT22;5557;51.670;7.788;2023-02-07T12:53:32;3.80;1.00
11009;DHT22;5557;51.670;7.788;2023-02-07T12:56:38;3.70;1.00
11009;DHT22;5557;51.670;7.788;2023-02-07T13:05:55;3.60;1.00
11009;DHT22;5557;51.670;7.788;2023-02-07T13:08:51;3.70;1.00
11009;DHT22;5557;51.670;7.788;2023-02-07T13:15:00;3.80;1.00
11009;DHT22;5557;51.670;7.788;2023-02-07T13:20:22;3.90;1.00
11009;DHT22;5557;51.670;7.788;2023-02-07T13:22:56;3.90;1.00
11009;DHT22;5557;51.670;7.788;2023-02-07T13:25:32;4.00;1.00
11009;DHT22;5557;51.670;7.788;2023-02-07T13:28:25;4.00;1.00
11009;DHT22;5557;51.670;7.788;2023-02-07T13:30:53;4.00;1.00
11009;DHT22;5557;51.670;7.788;2023-02-07T13:33:43;3.90;1.00
11009;DHT22;5557;51.670;7.788;2023-02-07T13:36:34;4.00;1.00
11009;DHT22;5557;51.670;7.788;2023-02-07T13:42:30;4.00;1.00
11009;DHT22;5557;51.670;7.788;2023-02-07T13:51:39;4.20;1.00
11009;DHT22;5557;51.670;7.788;2023-02-07T13:54:34;4.10;1.00
11009;DHT22;5557;51.670;7.788;2023-02-07T13:57:02;4.10;1.00
11009;DHT22;5557;51.670;7.788;2023-02-07T14:00:21;4.10;1.00
11009;DHT22;5557;51.670;7.788;2023-02-07T14:02:59;4.10;1.00
11009;DHT22;5557;51.670;7.788;2023-02-07T14:08:06;4.10;1.00
11009;DHT22;5557;51.670;7.788;2023-02-07T14:10:51;4.10;1.00
11009;DHT22;5557;51.670;7.788;2023-02-07T14:13:38;4.10;1.00
11009;DHT22;5557;51.670;7.788;2023-02-07T14:16:10;4.10;1.00
11009;DHT22;5557;51.670;7.788;2023-02-07T14:18:46;4.20;1.00
11009;DHT22;5557;51.670;7.788;2023-02-07T14:21:26;4.10;1.00
11009;DHT22;5557;51.670;7.788;2023-02-07T14:26:50;4.20;1.00
11009;DHT22;5557;51.670;7.788;2023-02-07T14:29:55;4.10;1.00
11009;DHT22;5557;51.670;7.788;2023-02-07T14:32:27;4.20;1.00
11009;DHT22;5557;51.670;7.788;2023-02-07T14:35:01;5.20;1.00
11009;DHT22;5557;51.670;7.788;2023-02-07T14:37:53;6.60;1.00
11009;DHT22;5557;51.670;7.788;2023-02-07T14:43:54;8.30;1.00
11009;DHT22;5557;51.670;7.788;2023-02-07T14:46:41;8.50;1.00
11009;DHT22;5557;51.670;7.788;2023-02-07T14:52:07;8.50;1.00
11009;DHT22;5557;51.670;7.788;2023-02-07T14:54:49;8.10;1.00
11009;DHT22;5557;51.670;7.788;2023-02-07T14:57:47;8.00;1.00
11009;DHT22;5557;51.670;7.788;2023-02-07T15:02:59;8.10;1.00
11009;DHT22;5557;51.670;7.788;2023-02-07T15:05:46;7.90;1.00
11009;DHT22;5557;51.670;7.788;2023-02-07T15:08:20;8.00;1.00
11009;DHT22;5557;51.670;7.788;2023-02-07T15:11:03;7.50;1.00
11009;DHT22;5557;51.670;7.788;2023-02-07T15:13:40;6.50;1.00
11009;DHT22;5557;51.670;7.788;2023-02-07T15:18:49;4.90;1.00
11009;DHT22;5557;51.670;7.788;2023-02-07T15:21:43;4.60;1.00
11009;DHT22;5557;51.670;7.788;2023-02-07T15:24:38;4.40;1.00
11009;DHT22;5557;51.670;7.788;2023-02-07T15:27:25;4.20;1.00
11009;DHT22;5557;51.670;7.788;2023-02-07T15:30:01;4.10;1.00
11009;DHT22;5557;51.670;7.788;2023-02-07T15:32:32;4.10;1.00
11009;DHT22;5557;51.670;7.788;2023-02-07T15:35:36;4.10;1.00
11009;DHT22;5557;51.670;7.788;2023-02-07T15:38:31;4.10;1.00
11009;DHT22;5557;51.670;7.788;2023-02-07T15:40:58;4.00;1.00
11009;DHT22;5557;51.670;7.788;2023-02-07T15:43:31;3.90;1.00
11009;DHT22;5557;51.670;7.788;2023-02-07T15:48:31;3.80;1.00
11009;DHT22;5557;51.670;7.788;2023-02-07T15:51:01;3.80;1.00
11009;DHT22;5557;51.670;7.788;2023-02-07T15:53:29;3.70;1.00
11009;DHT22;5557;51.670;7.788;2023-02-07T15:55:57;3.60;1.00
11009;DHT22;5557;51.670;7.788;2023-02-07T15:58:35;3.60;1.00
11009;DHT22;5557;51.670;7.788;2023-02-07T16:01:30;3.50;1.00
11009;DHT22;5557;51.670;7.788;2023-02-07T16:03:58;3.40;1.00
11009;DHT22;5557;51.670;7.788;2023-02-07T16:06:27;3.40;1.00
11009;DHT22;5557;51.670;7.788;2023-02-07T16:08:56;3.30;1.00
11009;DHT22;5557;51.670;7.788;2023-02-07T16:11:42;3.30;1.00
11009;DHT22;5557;51.670;7.788;2023-02-07T16:14:21;3.20;1.00
11009;DHT22;5557;51.670;7.788;2023-02-07T16:16:55;3.20;1.00
11009;DHT22;5557;51.670;7.788;2023-02-07T16:19:30;3.10;1.00
11009;DHT22;5557;51.670;7.788;2023-02-07T16:22:20;3.00;1.00
11009;DHT22;5557;51.670;7.788;2023-02-07T16:24:52;2.90;1.00
11009;DHT22;5557;51.670;7.788;2023-02-07T16:27:21;2.90;1.00
11009;DHT22;5557;51.670;7.788;2023-02-07T16:29:59;2.80;1.00
11009;DHT22;5557;51.670;7.788;2023-02-07T16:32:30;2.70;1.00
11009;DHT22;5557;51.670;7.788;2023-02-07T16:34:58;2.70;1.00
11009;DHT22;5557;51.670;7.788;2023-02-07T16:37:26;2.60;1.00
11009;DHT22;5557;51.670;7.788;2023-02-07T16:39:53;2.50;1.00
11009;DHT22;5557;51.670;7.788;2023-02-07T16:42:21;2.50;1.00
11009;DHT22;5557;51.670;7.788;2023-02-07T16:44:48;2.50;1.00
11009;DHT22;5557;51.670;7.788;2023-02-07T16:47:16;2.40;1.00
11009;DHT22;5557;51.670;7.788;2023-02-07T16:49:44;2.40;1.00
11009;DHT22;5557;51.670;7.788;2023-02-07T16:52:11;2.30;1.00
11009;DHT22;5557;51.670;7.788;2023-02-07T16:54:38;2.20;1.00
11009;DHT22;5557;51.670;7.788;2023-02-07T16:57:06;2.10;1.00
11009;DHT22;5557;51.670;7.788;2023-02-07T16:59:33;2.10;1.00
11009;DHT22;5557;51.670;7.788;2023-02-07T17:02:00;2.00;1.00
11009;DHT22;5557;51.670;7.788;2023-02-07T17:04:27;2.00;1.00
11009;DHT22;5557;51.670;7.788;2023-02-07T17:06:54;2.00;1.10
11009;DHT22;5557;51.670;7.788;2023-02-07T17:09:23;2.00;1.70
11009;DHT22;5557;51.670;7.788;2023-02-07T17:11:51;2.00;2.70
11009;DHT22;5557;51.670;7.788;2023-02-07T17:14:19;1.90;4.10
11009;DHT22;5557;51.670;7.788;2023-02-07T17:16:46;1.80;4.50
11009;DHT22;5557;51.670;7.788;2023-02-07T17:19:20;1.80;5.50
11009;DHT22;5557;51.670;7.788;2023-02-07T17:21:52;1.70;6.00
11009;DHT22;5557;51.670;7.788;2023-02-07T17:24:19;1.60;7.00
11009;DHT22;5557;51.670;7.788;2023-02-07T17:26:49;1.50;9.10
11009;DHT22;5557;51.670;7.788;2023-02-07T17:29:17;1.40;10.60
11009;DHT22;5557;51.670;7.788;2023-02-07T17:31:45;1.30;12.10
11009;DHT22;5557;51.670;7.788;2023-02-07T17:34:21;1.30;12.90
11009;DHT22;5557;51.670;7.788;2023-02-07T17:36:49;1.20;14.00
11009;DHT22;5557;51.670;7.788;2023-02-07T17:39:18;1.20;15.30
11009;DHT22;5557;51.670;7.788;2023-02-07T17:41:45;1.20;17.00
11009;DHT22;5557;51.670;7.788;2023-02-07T17:44:12;1.20;16.50
11009;DHT22;5557;51.670;7.788;2023-02-07T17:46:40;1.20;16.40
11009;DHT22;5557;51.670;7.788;2023-02-07T17:49:13;1.20;16.80
11009;DHT22;5557;51.670;7.788;2023-02-07T17:51:40;1.30;16.30
11009;DHT22;5557;51.670;7.788;2023-02-07T17:54:07;1.30;15.60
11009;DHT22;5557;51.670;7.788;2023-02-07T17:56:35;1.20;15.30
11009;DHT22;5557;51.670;7.788;2023-02-07T17:59:05;1.00;15.60
11009;DHT22;5557;51.670;7.788;2023-02-07T18:01:32;0.80;17.00
11009;DHT22;5557;51.670;7.788;2023-02-07T18:04:00;0.60;18.00
11009;DHT22;5557;51.670;7.788;2023-02-07T18:06:28;0.50;19.00
11009;DHT22;5557;51.670;7.788;2023-02-07T18:08:57;0.30;20.70